Time;durP1;ratioP1;P1;durP2;ratioP2;P2;SDS_P1;SDS_P2;PMS_P1;PMS_P2;Temp;Humidity;BMP_temperature;BMP_pressure;BME280_temperature;BME280_humidity;BME280_pressure;Samples;Min_cycle;Max_cycle;Signal;HPM_P1;HPM_P2
2023/04/23 00:01:05;;;;;;;2.55;1.67;;;16.50;99.90;;;;;;7385323;19;20140;-74
2023/04/23 00:03:35;;;;;;;3.58;2.00;;;16.40;99.90;;;;;;7386350;19;20142;-73
2023/04/23 00:06:09;;;;;;;2.92;1.75;;;16.40;99.90;;;;;;7388895;19;20138;-74
2023/04/23 00:08:36;;;;;;;3.08;1.60;;;16.40;99.90;;;;;;7382711;19;20138;-74
2023/04/23 00:11:02;;;;;;;5.43;2.88;;;16.50;99.90;;;;;;7384186;19;20149;-74
2023/04/23 00:13:28;;;;;;;3.33;1.88;;;16.50;99.90;;;;;;7385889;19;20525;-73
2023/04/23 00:15:54;;;;;;;2.22;1.70;;;16.50;99.90;;;;;;7384165;19;20142;-74
2023/04/23 00:18:20;;;;;;;4.65;2.10;;;16.60;99.90;;;;;;7385163;19;20139;-74
2023/04/23 00:20:45;;;;;;;1.85;1.30;;;16.50;99.90;;;;;;7384054;19;20329;-74
2023/04/23 00:23:11;;;;;;;3.38;1.73;;;16.40;99.90;;;;;;7384966;19;20175;-76
2023/04/23 00:25:37;;;;;;;2.45;1.50;;;16.50;99.90;;;;;;7383657;19;20502;-74
2023/04/23 00:28:03;;;;;;;3.45;1.38;;;16.40;99.90;;;;;;7385880;19;20146;-73
2023/04/23 00:30:29;;;;;;;2.60;1.58;;;16.30;99.90;;;;;;7381626;19;20151;-73
2023/04/23 00:32:54;;;;;;;1.70;1.10;;;16.30;99.90;;;;;;7385018;19;20599;-74
2023/04/23 00:35:20;;;;;;;1.27;1.10;;;16.20;99.90;;;;;;7383438;19;20141;-74
2023/04/23 00:37:46;;;;;;;5.47;1.52;;;16.10;99.90;;;;;;7384944;19;20173;-74
2023/04/23 00:40:12;;;;;;;3.17;1.27;;;16.30;99.90;;;;;;7379721;19;20158;-75
2023/04/23 00:42:39;;;;;;;1.88;1.10;;;16.10;99.90;;;;;;7383129;19;20151;-75
2023/04/23 00:45:07;;;;;;;3.78;1.67;;;16.20;99.90;;;;;;7392938;19;20146;-74
2023/04/23 00:47:33;;;;;;;4.68;1.58;;;16.10;99.90;;;;;;7392975;19;20596;-74
2023/04/23 00:50:01;;;;;;;2.55;1.30;;;16.20;99.90;;;;;;7390197;19;20496;-74
2023/04/23 00:52:28;;;;;;;1.50;1.25;;;16.10;99.90;;;;;;7389704;19;20154;-74
2023/04/23 00:54:54;;;;;;;1.48;1.35;;;16.20;99.90;;;;;;7391151;19;20131;-75
2023/04/23 00:57:22;;;;;;;2.40;1.30;;;16.20;99.90;;;;;;7390911;19;20139;-73
2023/04/23 00:59:48;;;;;;;1.85;1.30;;;16.20;99.90;;;;;;7392725;19;20146;-74
2023/04/23 01:02:15;;;;;;;2.97;1.25;;;16.10;99.90;;;;;;7389986;19;20262;-81
2023/04/23 01:04:43;;;;;;;2.00;1.27;;;16.20;99.90;;;;;;7393087;19;20150;-81
2023/04/23 01:07:11;;;;;;;1.33;1.23;;;16.20;99.90;;;;;;7391077;19;20162;-82
2023/04/23 01:09:37;;;;;;;3.45;1.40;;;16.10;99.90;;;;;;7388911;19;20160;-80
2023/04/23 01:12:05;;;;;;;1.60;1.10;;;16.10;99.90;;;;;;7393235;19;20134;-81
2023/04/23 01:14:31;;;;;;;2.08;1.25;;;16.00;99.90;;;;;;7396217;19;20137;-81
2023/04/23 01:16:57;;;;;;;4.25;1.35;;;16.00;99.90;;;;;;7394332;19;20139;-79
2023/04/23 01:19:24;;;;;;;2.17;1.15;;;16.00;99.90;;;;;;7392268;19;20150;-80
2023/04/23 01:21:50;;;;;;;3.03;1.00;;;15.90;99.90;;;;;;7390573;19;20248;-82
2023/04/23 01:24:16;;;;;;;2.40;1.52;;;16.10;99.90;;;;;;7391155;19;20142;-81
2023/04/23 01:26:41;;;;;;;3.10;1.25;;;16.10;99.90;;;;;;7391863;19;20135;-80
2023/04/23 01:29:09;;;;;;;2.15;1.55;;;16.00;99.90;;;;;;7390522;19;20138;-80
2023/04/23 01:31:35;;;;;;;1.55;1.20;;;16.10;99.90;;;;;;7392089;19;20135;-80
2023/04/23 01:34:01;;;;;;;1.67;1.50;;;16.10;99.90;;;;;;7393783;19;20134;-82
2023/04/23 01:36:28;;;;;;;2.88;1.40;;;16.00;99.90;;;;;;7385876;19;20218;-81
2023/04/23 01:38:54;;;;;;;2.70;1.50;;;16.00;99.90;;;;;;7387079;19;20142;-82
2023/04/23 01:41:20;;;;;;;3.10;1.35;;;15.90;99.90;;;;;;7392814;19;20146;-80
2023/04/23 01:43:45;;;;;;;2.22;1.50;;;16.00;99.90;;;;;;7390832;19;20135;-81
2023/04/23 01:46:11;;;;;;;3.22;1.38;;;15.90;99.90;;;;;;7390827;19;20150;-80
2023/04/23 01:48:37;;;;;;;2.80;1.27;;;15.90;99.90;;;;;;7390462;19;20198;-81
2023/04/23 01:51:03;;;;;;;2.95;1.20;;;15.90;99.90;;;;;;7390362;19;20158;-81
2023/04/23 01:53:29;;;;;;;2.10;1.42;;;16.00;99.90;;;;;;7386665;19;20138;-82
2023/04/23 01:55:55;;;;;;;4.65;1.30;;;16.00;99.90;;;;;;7390233;19;20160;-81
2023/04/23 01:58:22;;;;;;;2.38;1.40;;;15.90;99.90;;;;;;7390683;19;20675;-80
2023/04/23 02:00:49;;;;;;;3.22;1.35;;;15.90;99.90;;;;;;7390567;19;20131;-80
2023/04/23 02:03:15;;;;;;;3.72;1.67;;;15.90;99.90;;;;;;7391719;19;20135;-79
2023/04/23 02:05:41;;;;;;;1.83;1.25;;;15.80;99.90;;;;;;7391800;19;20512;-81
2023/04/23 02:08:07;;;;;;;3.17;1.30;;;15.80;99.90;;;;;;7388011;19;20169;-80
2023/04/23 02:10:33;;;;;;;1.95;1.42;;;15.70;99.90;;;;;;7388272;19;20611;-81
2023/04/23 02:13:01;;;;;;;1.20;1.10;;;15.70;99.90;;;;;;7391228;19;20141;-81
2023/04/23 02:15:27;;;;;;;2.03;1.30;;;15.70;99.90;;;;;;7393437;19;20142;-80
2023/04/23 02:17:53;;;;;;;2.03;1.10;;;15.80;99.90;;;;;;7389832;19;20139;-81
2023/04/23 02:20:24;;;;;;;1.50;1.20;;;15.70;99.90;;;;;;7389803;19;20230;-81
2023/04/23 02:22:50;;;;;;;1.75;1.20;;;15.80;99.90;;;;;;7391147;19;20153;-81
2023/04/23 02:25:17;;;;;;;2.58;1.33;;;15.70;99.90;;;;;;7388604;19;20201;-80
2023/04/23 02:27:44;;;;;;;2.63;1.10;;;15.70;99.90;;;;;;7391344;19;20154;-80
2023/04/23 02:30:10;;;;;;;1.83;1.60;;;15.80;99.90;;;;;;7387015;19;20157;-80
2023/04/23 02:32:36;;;;;;;2.10;1.50;;;15.50;99.90;;;;;;7389498;19;20529;-79
2023/04/23 02:35:05;;;;;;;2.55;1.10;;;15.60;99.90;;;;;;7390511;19;20229;-80
2023/04/23 02:37:34;;;;;;;1.45;1.00;;;15.60;99.90;;;;;;7387999;19;20134;-79
2023/04/23 02:40:00;;;;;;;1.70;1.15;;;15.50;99.90;;;;;;7391074;19;20161;-79
2023/04/23 02:42:26;;;;;;;3.65;1.20;;;15.60;99.90;;;;;;7389813;19;20143;-79
2023/04/23 02:44:52;;;;;;;2.00;1.30;;;15.50;99.90;;;;;;7387352;19;20582;-79
2023/04/23 02:47:18;;;;;;;2.08;1.00;;;15.50;99.90;;;;;;7390174;19;20160;-79
2023/04/23 02:49:43;;;;;;;1.52;1.00;;;15.50;99.90;;;;;;7386481;19;20157;-79
2023/04/23 02:52:09;;;;;;;2.70;1.20;;;15.60;99.90;;;;;;7382021;19;20143;-78
2023/04/23 02:54:37;;;;;;;1.67;1.30;;;15.40;99.90;;;;;;7389144;19;20139;-79
2023/04/23 02:57:04;;;;;;;2.83;1.23;;;15.40;99.90;;;;;;7390154;19;20198;-80
2023/04/23 02:59:30;;;;;;;1.40;1.08;;;15.50;99.90;;;;;;7387059;19;20146;-80
2023/04/23 03:01:56;;;;;;;1.52;1.27;;;15.50;99.90;;;;;;7388360;19;20546;-80
2023/04/23 03:04:22;;;;;;;1.50;1.10;;;15.50;99.90;;;;;;7388782;19;20150;-79
2023/04/23 03:06:48;;;;;;;1.38;1.23;;;15.40;99.90;;;;;;7386723;19;20146;-79
2023/04/23 03:09:14;;;;;;;1.55;1.25;;;15.40;99.90;;;;;;7389054;19;20139;-80
2023/04/23 03:11:39;;;;;;;5.57;1.30;;;15.40;99.90;;;;;;7390416;19;20501;-79
2023/04/23 03:14:05;;;;;;;1.20;1.05;;;15.40;99.90;;;;;;7388804;19;20145;-79
2023/04/23 03:16:31;;;;;;;1.60;1.00;;;15.40;99.90;;;;;;7388419;19;20142;-79
2023/04/23 03:18:58;;;;;;;1.17;1.02;;;15.40;99.90;;;;;;7389607;19;20621;-80
2023/04/23 03:21:24;;;;;;;2.13;1.10;;;15.40;99.90;;;;;;7386756;19;20138;-79
2023/04/23 03:23:51;;;;;;;2.17;1.40;;;15.30;99.90;;;;;;7389008;19;20134;-80
2023/04/23 03:26:16;;;;;;;1.85;1.30;;;15.30;99.90;;;;;;7388570;19;20142;-79
2023/04/23 03:28:42;;;;;;;1.98;1.10;;;15.30;99.90;;;;;;7390936;19;20134;-79
2023/04/23 03:31:08;;;;;;;3.40;1.10;;;15.20;99.90;;;;;;7386342;19;20891;-80
2023/04/23 03:33:33;;;;;;;1.92;1.10;;;15.30;99.90;;;;;;7386906;19;20161;-79
2023/04/23 03:35:59;;;;;;;0.90;0.90;;;15.30;99.90;;;;;;7388503;19;20159;-80
2023/04/23 03:38:25;;;;;;;1.10;1.00;;;15.30;99.90;;;;;;7390231;19;20613;-80
2023/04/23 03:40:51;;;;;;;1.20;1.00;;;15.30;99.90;;;;;;7387119;19;20169;-79
2023/04/23 03:43:17;;;;;;;1.20;1.08;;;15.30;99.90;;;;;;7386770;19;20649;-79
2023/04/23 03:45:43;;;;;;;2.95;1.00;;;15.20;99.90;;;;;;7388416;19;20142;-80
2023/04/23 03:48:09;;;;;;;1.48;1.08;;;15.10;99.90;;;;;;7387599;19;20693;-80
2023/04/23 03:50:39;;;;;;;1.52;1.00;;;15.00;99.90;;;;;;7385264;19;20145;-80
2023/04/23 03:53:06;;;;;;;1.13;0.80;;;15.00;99.90;;;;;;7387839;19;20563;-80
2023/04/23 03:55:31;;;;;;;1.08;0.90;;;14.90;99.90;;;;;;7389094;19;20134;-80
2023/04/23 03:58:00;;;;;;;3.30;1.30;;;15.10;99.90;;;;;;7388017;19;20160;-80
2023/04/23 04:00:26;;;;;;;1.00;0.90;;;15.00;99.90;;;;;;7388759;19;20158;-80
2023/04/23 04:02:52;;;;;;;1.58;1.20;;;15.10;99.90;;;;;;7386267;19;20154;-80
2023/04/23 04:05:18;;;;;;;2.00;0.90;;;15.10;99.90;;;;;;7389013;19;20144;-80
2023/04/23 04:07:43;;;;;;;1.08;0.98;;;15.10;99.90;;;;;;7387591;19;20149;-80
2023/04/23 04:10:09;;;;;;;1.60;1.08;;;15.10;99.90;;;;;;7385030;19;20135;-80
2023/04/23 04:12:35;;;;;;;1.10;1.00;;;15.10;99.90;;;;;;7388754;19;20138;-80
2023/04/23 04:15:02;;;;;;;2.88;1.00;;;15.10;99.90;;;;;;7388213;19;20582;-80
2023/04/23 04:17:28;;;;;;;2.83;1.13;;;15.10;99.90;;;;;;7388817;19;20171;-81
2023/04/23 04:19:53;;;;;;;1.33;0.90;;;15.10;99.90;;;;;;7394179;19;20150;-80
2023/04/23 04:22:19;;;;;;;1.33;0.93;;;15.00;99.90;;;;;;7398332;19;20154;-80
2023/04/23 04:24:46;;;;;;;2.08;1.00;;;15.00;99.90;;;;;;7393190;19;20135;-81
2023/04/23 04:27:12;;;;;;;2.00;1.13;;;15.00;99.90;;;;;;7394578;19;20486;-79
2023/04/23 04:29:39;;;;;;;1.85;1.48;;;15.00;99.90;;;;;;7392927;19;20174;-80
2023/04/23 04:32:07;;;;;;;1.00;0.80;;;15.00;99.90;;;;;;7395632;19;20134;-80
2023/04/23 04:34:34;;;;;;;1.15;1.00;;;15.00;99.90;;;;;;7393119;19;20139;-80
2023/04/23 04:37:00;;;;;;;1.05;0.70;;;15.00;99.90;;;;;;7393159;19;20526;-80
2023/04/23 04:39:26;;;;;;;1.40;0.85;;;14.90;99.90;;;;;;7393737;19;20134;-79
2023/04/23 04:41:53;;;;;;;1.77;1.10;;;14.90;99.90;;;;;;7391384;19;20158;-79
2023/04/23 04:44:19;;;;;;;0.98;0.90;;;14.90;99.90;;;;;;7391463;19;20154;-79
2023/04/23 04:46:44;;;;;;;1.00;0.80;;;14.70;99.90;;;;;;7394940;19;20230;-80
2023/04/23 04:49:11;;;;;;;1.33;1.00;;;14.80;99.90;;;;;;7390965;19;20159;-81
2023/04/23 04:51:40;;;;;;;1.73;1.00;;;14.90;99.90;;;;;;7392290;19;20139;-80
2023/04/23 04:54:07;;;;;;;1.15;0.85;;;14.80;99.90;;;;;;7393875;19;20146;-80
2023/04/23 04:56:33;;;;;;;1.60;1.00;;;14.90;99.90;;;;;;7394516;19;20145;-80
2023/04/23 04:59:00;;;;;;;1.88;1.10;;;14.90;99.90;;;;;;7393107;19;20135;-80
2023/04/23 05:01:27;;;;;;;1.00;0.90;;;14.90;99.90;;;;;;7394623;19;20141;-80
2023/04/23 05:03:56;;;;;;;0.93;0.85;;;14.80;99.90;;;;;;7393391;19;20139;-80
2023/04/23 05:06:22;;;;;;;1.75;1.13;;;14.80;99.90;;;;;;7394973;19;20224;-80
2023/04/23 05:08:48;;;;;;;1.27;1.05;;;14.90;99.90;;;;;;7395469;19;20161;-80
2023/04/23 05:11:19;;;;;;;1.08;0.90;;;14.90;99.90;;;;;;7393559;19;20138;-80
2023/04/23 05:13:46;;;;;;;1.95;1.20;;;14.90;99.90;;;;;;7393548;19;20206;-81
2023/04/23 05:16:12;;;;;;;1.20;1.10;;;14.90;99.90;;;;;;7392374;19;20868;-79
2023/04/23 05:18:38;;;;;;;1.50;0.98;;;14.90;99.90;;;;;;7392713;19;20199;-79
2023/04/23 05:21:05;;;;;;;1.27;1.00;;;15.00;99.90;;;;;;7392844;19;20198;-80
2023/04/23 05:23:31;;;;;;;3.70;1.10;;;15.00;99.90;;;;;;7392031;19;20144;-80
2023/04/23 05:25:57;;;;;;;4.13;1.10;;;15.10;99.90;;;;;;7391971;19;20249;-80
2023/04/23 05:28:24;;;;;;;0.90;0.70;;;15.10;99.90;;;;;;7393149;19;20161;-81
2023/04/23 05:30:50;;;;;;;1.40;0.82;;;15.20;99.90;;;;;;7388306;19;20135;-80
2023/04/23 05:33:16;;;;;;;2.13;1.23;;;15.20;99.90;;;;;;7390204;19;20242;-80
2023/04/23 05:35:42;;;;;;;2.17;0.95;;;15.20;99.90;;;;;;7392119;19;20130;-80
2023/04/23 05:38:10;;;;;;;1.50;1.00;;;15.30;99.90;;;;;;7391591;19;20146;-80
2023/04/23 05:40:37;;;;;;;1.10;0.90;;;15.30;99.90;;;;;;7393161;19;20541;-81
2023/04/23 05:43:03;;;;;;;1.88;1.20;;;15.50;99.90;;;;;;7390552;19;20749;-80
2023/04/23 05:45:28;;;;;;;0.82;0.82;;;15.50;99.90;;;;;;7391613;19;20138;-80
2023/04/23 05:47:54;;;;;;;1.58;1.00;;;15.50;99.90;;;;;;7391980;19;20166;-79
2023/04/23 05:50:20;;;;;;;2.15;0.90;;;15.40;99.90;;;;;;7391238;19;20138;-80
2023/04/23 05:52:46;;;;;;;1.50;0.88;;;15.50;99.90;;;;;;7392608;19;20591;-79
2023/04/23 05:55:14;;;;;;;1.35;0.80;;;15.50;99.90;;;;;;7391863;19;20134;-79
2023/04/23 05:57:40;;;;;;;1.40;0.82;;;15.50;99.90;;;;;;7390425;19;20167;-79
2023/04/23 06:00:10;;;;;;;2.35;0.90;;;15.50;99.90;;;;;;7392152;19;20138;-79
2023/04/23 06:02:37;;;;;;;1.10;0.90;;;15.70;99.90;;;;;;7389743;19;20143;-78
2023/04/23 06:05:04;;;;;;;1.67;0.80;;;15.60;99.90;;;;;;7391237;19;20261;-78
2023/04/23 06:07:31;;;;;;;2.55;0.80;;;15.70;99.90;;;;;;7390496;19;20147;-78
2023/04/23 06:09:56;;;;;;;1.35;0.88;;;15.70;99.90;;;;;;7389347;19;20150;-77
2023/04/23 06:12:22;;;;;;;0.88;0.70;;;15.70;99.90;;;;;;7388211;19;20146;-80
2023/04/23 06:14:48;;;;;;;1.17;0.63;;;15.90;99.90;;;;;;7390691;19;20154;-79
2023/04/23 06:17:13;;;;;;;0.82;0.70;;;15.90;99.90;;;;;;7388422;19;20138;-77
2023/04/23 06:19:40;;;;;;;0.60;0.60;;;15.80;99.90;;;;;;7387680;19;20608;-76
2023/04/23 06:22:06;;;;;;;1.25;1.00;;;15.60;99.90;;;;;;7391859;19;20134;-76
2023/04/23 06:24:32;;;;;;;1.00;0.77;;;15.50;99.90;;;;;;7390006;19;20163;-77
2023/04/23 06:26:58;;;;;;;1.42;0.70;;;15.50;99.90;;;;;;7390931;19;20631;-77
2023/04/23 06:29:24;;;;;;;0.70;0.70;;;15.50;99.90;;;;;;7390004;19;20142;-77
2023/04/23 06:31:49;;;;;;;0.82;0.63;;;15.60;99.90;;;;;;7389500;19;20149;-78
2023/04/23 06:34:15;;;;;;;0.77;0.63;;;15.70;99.90;;;;;;7389153;19;20155;-76
2023/04/23 06:36:42;;;;;;;0.75;0.68;;;15.60;99.90;;;;;;7390329;19;20147;-78
2023/04/23 06:39:08;;;;;;;0.40;0.40;;;15.60;99.90;;;;;;7390532;19;20478;-77
2023/04/23 06:41:34;;;;;;;0.80;0.60;;;15.60;99.90;;;;;;7387508;19;20157;-77
2023/04/23 06:43:59;;;;;;;0.75;0.65;;;15.90;99.90;;;;;;7389758;19;20631;-78
2023/04/23 06:46:25;;;;;;;1.92;0.90;;;16.10;99.90;;;;;;7387538;19;20138;-77
2023/04/23 06:48:51;;;;;;;0.60;0.60;;;16.50;99.90;;;;;;7391971;19;20143;-78
2023/04/23 06:51:18;;;;;;;0.80;0.68;;;16.80;99.90;;;;;;7391289;19;20461;-77
2023/04/23 06:53:43;;;;;;;1.25;0.60;;;17.20;99.90;;;;;;7390196;19;20130;-77
2023/04/23 06:56:09;;;;;;;1.25;0.55;;;17.10;99.90;;;;;;7389185;19;20135;-78
2023/04/23 06:58:35;;;;;;;0.73;0.60;;;17.50;99.90;;;;;;7389430;19;20214;-78
2023/04/23 07:01:06;;;;;;;0.98;0.60;;;18.80;99.90;;;;;;7388904;19;20139;-78
2023/04/23 07:03:32;;;;;;;0.65;0.50;;;20.10;99.90;;;;;;7388555;19;20150;-78
2023/04/23 07:05:58;;;;;;;0.60;0.50;;;20.90;99.90;;;;;;7389734;19;20587;-78
2023/04/23 07:08:24;;;;;;;0.50;0.50;;;21.60;99.90;;;;;;7392484;19;20456;-78
2023/04/23 07:10:50;;;;;;;0.40;0.40;;;21.30;99.90;;;;;;7386303;19;20138;-78
2023/04/23 07:13:16;;;;;;;1.38;0.80;;;21.40;99.90;;;;;;7387608;19;20139;-78
2023/04/23 07:15:42;;;;;;;0.40;0.40;;;21.70;99.90;;;;;;7391686;19;20495;-78
2023/04/23 07:18:08;;;;;;;0.70;0.60;;;21.10;99.90;;;;;;7389291;19;20155;-77
2023/04/23 07:20:34;;;;;;;1.05;0.70;;;21.10;99.90;;;;;;7387488;19;20134;-78
2023/04/23 07:23:02;;;;;;;1.52;0.52;;;20.50;99.90;;;;;;7388386;19;20146;-78
2023/04/23 07:25:29;;;;;;;1.50;0.95;;;19.70;99.90;;;;;;7388814;19;20138;-78
2023/04/23 07:27:56;;;;;;;2.25;1.10;;;19.20;99.90;;;;;;7388980;19;20142;-80
2023/04/23 07:30:23;;;;;;;1.35;1.00;;;19.00;99.90;;;;;;7386516;19;20150;-80
2023/04/23 07:32:49;;;;;;;1.58;0.80;;;18.40;99.90;;;;;;7390340;19;20153;-82
2023/04/23 07:35:15;;;;;;;1.45;1.23;;;18.50;99.90;;;;;;7390485;19;20667;-78
2023/04/23 07:37:41;;;;;;;1.05;0.82;;;18.80;99.90;;;;;;7388785;19;20143;-80
2023/04/23 07:40:07;;;;;;;0.73;0.70;;;19.60;99.90;;;;;;7389892;19;20488;-81
2023/04/23 07:42:34;;;;;;;0.60;0.57;;;20.70;99.90;;;;;;7387195;19;20264;-82
2023/04/23 07:45:00;;;;;;;1.70;0.77;;;21.50;99.90;;;;;;7388573;19;20147;-79
2023/04/23 07:47:27;;;;;;;4.07;1.92;;;21.60;99.90;;;;;;7391656;19;20154;-80
2023/04/23 07:49:53;;;;;;;1.45;1.00;;;20.90;99.90;;;;;;7390003;19;20158;-82
2023/04/23 07:52:18;;;;;;;1.17;0.82;;;19.90;99.90;;;;;;7386776;19;20158;-78
2023/04/23 07:54:45;;;;;;;1.33;0.60;;;19.90;99.90;;;;;;7389885;19;20916;-77
2023/04/23 07:57:11;;;;;;;0.57;0.57;;;19.50;99.90;;;;;;7388152;19;20162;-77
2023/04/23 07:59:39;;;;;;;1.77;0.80;;;18.80;99.90;;;;;;7386201;19;20147;-79
2023/04/23 08:02:05;;;;;;;0.70;0.70;;;18.30;99.90;;;;;;7388026;19;20210;-79
2023/04/23 08:04:31;;;;;;;0.90;0.80;;;17.90;99.90;;;;;;7388947;19;20167;-81
2023/04/23 08:06:57;;;;;;;1.35;0.90;;;18.10;99.90;;;;;;7387735;19;20177;-82
2023/04/23 08:09:23;;;;;;;1.25;0.80;;;18.20;99.90;;;;;;7387092;19;20492;-84
2023/04/23 08:11:49;;;;;;;1.08;0.85;;;17.90;99.90;;;;;;7392529;19;20135;-88
2023/04/23 08:14:16;;;;;;;0.70;0.70;;;17.50;99.90;;;;;;7397268;19;20170;-87
2023/04/23 08:16:42;;;;;;;1.25;0.77;;;17.10;99.90;;;;;;7399400;19;20149;-88
2023/04/23 08:19:08;;;;;;;1.67;1.17;;;17.00;99.90;;;;;;7396585;19;20145;-87
2023/04/23 08:21:34;;;;;;;3.72;1.45;;;16.90;99.90;;;;;;7396045;19;20827;-88
2023/04/23 08:24:01;;;;;;;1.92;1.45;;;16.80;99.90;;;;;;7392494;19;20151;-89
2023/04/23 08:26:30;;;;;;;1.33;1.02;;;16.70;99.90;;;;;;7392227;19;20178;-90
2023/04/23 08:28:56;;;;;;;1.42;1.00;;;16.70;99.90;;;;;;7384638;19;20134;-84
2023/04/23 08:31:25;;;;;;;1.88;1.02;;;16.70;99.90;;;;;;7385820;19;20138;-84
2023/04/23 08:33:51;;;;;;;3.40;1.38;;;16.80;99.90;;;;;;7389114;19;20159;-82
2023/04/23 08:36:17;;;;;;;0.98;0.80;;;17.00;99.90;;;;;;7385748;19;20165;-86
2023/04/23 08:38:43;;;;;;;1.73;1.20;;;17.00;99.90;;;;;;7387465;19;20590;-86
2023/04/23 08:41:12;;;;;;;1.85;1.10;;;17.10;99.90;;;;;;7384999;19;20174;-84
2023/04/23 08:43:45;;;;;;;2.30;1.15;;;17.00;99.90;;;;;;7386762;19;20362;-84
2023/04/23 08:46:13;;;;;;;1.90;1.48;;;17.00;99.90;;;;;;7388661;19;20150;-83
2023/04/23 08:48:43;;;;;;;1.27;1.08;;;17.00;99.90;;;;;;7389750;19;20469;-83
2023/04/23 08:51:11;;;;;;;1.40;1.30;;;17.20;99.90;;;;;;7385825;19;20678;-82
2023/04/23 08:53:38;;;;;;;2.17;1.17;;;17.30;99.90;;;;;;7385894;19;20151;-83
2023/04/23 08:56:05;;;;;;;1.48;1.30;;;17.50;99.90;;;;;;7389227;19;20138;-88
2023/04/23 08:58:32;;;;;;;0.82;0.82;;;17.60;99.90;;;;;;7384166;19;20472;-83
2023/04/23 09:00:59;;;;;;;1.63;1.10;;;17.70;99.90;;;;;;7387301;19;20135;-87
2023/04/23 09:03:26;;;;;;;1.52;1.15;;;17.60;99.90;;;;;;7384122;19;20598;-83
2023/04/23 09:05:53;;;;;;;1.70;1.05;;;17.60;99.90;;;;;;7389630;19;20526;-81
2023/04/23 09:08:19;;;;;;;1.10;0.90;;;17.70;99.90;;;;;;7392584;19;20131;-86
2023/04/23 09:10:46;;;;;;;1.08;0.98;;;17.70;99.90;;;;;;7391664;19;20135;-89
2023/04/23 09:13:12;;;;;;;1.83;0.80;;;17.90;99.90;;;;;;7393903;19;20149;-88
2023/04/23 09:15:44;;;;;;;1.50;0.90;;;18.00;99.90;;;;;;7392813;19;20157;-85
2023/04/23 09:18:09;;;;;;;1.10;1.00;;;17.90;99.90;;;;;;7395679;19;20145;-89
2023/04/23 09:20:36;;;;;;;1.58;1.00;;;17.90;99.90;;;;;;7394744;19;20150;-86
2023/04/23 09:23:07;;;;;;;1.30;0.90;;;17.90;99.90;;;;;;7396008;19;20154;-88
2023/04/23 09:25:33;;;;;;;1.52;1.00;;;18.00;99.90;;;;;;7395815;19;20150;-87
2023/04/23 09:28:01;;;;;;;0.90;0.70;;;18.20;99.90;;;;;;7392776;19;20134;-87
2023/04/23 09:30:28;;;;;;;0.80;0.80;;;18.50;99.90;;;;;;7393060;19;20892;-87
2023/04/23 09:32:53;;;;;;;1.15;0.70;;;18.70;99.90;;;;;;7395326;19;20166;-86
2023/04/23 09:35:19;;;;;;;1.23;0.60;;;18.80;99.90;;;;;;7393574;19;20452;-86
2023/04/23 09:37:48;;;;;;;0.90;0.85;;;18.80;99.90;;;;;;7395641;19;20151;-88
2023/04/23 09:40:16;;;;;;;0.65;0.65;;;18.80;99.90;;;;;;7394682;19;20206;-86
2023/04/23 09:42:48;;;;;;;0.70;0.60;;;18.90;99.90;;;;;;7398469;19;20145;-88
2023/04/23 09:45:14;;;;;;;0.88;0.60;;;18.90;99.90;;;;;;7397461;19;20155;-91
2023/04/23 09:47:47;;;;;;;0.95;0.60;;;18.90;99.90;;;;;;7394333;19;20160;-86
2023/04/23 09:50:13;;;;;;;1.15;0.70;;;19.00;99.90;;;;;;7393500;19;20538;-88
2023/04/23 09:52:40;;;;;;;0.77;0.70;;;19.20;99.90;;;;;;7393099;19;20151;-87
2023/04/23 09:55:06;;;;;;;1.85;1.00;;;19.30;99.90;;;;;;7394241;19;20130;-89
2023/04/23 09:57:37;;;;;;;0.88;0.65;;;19.40;99.90;;;;;;7392616;19;20185;-87
2023/04/23 10:00:15;;;;;;;0.95;0.73;;;19.40;99.90;;;;;;7399921;19;20194;-88
2023/04/23 10:02:51;;;;;;;0.93;0.80;;;19.40;99.90;;;;;;7400325;19;20169;-87
2023/04/23 10:05:21;;;;;;;2.00;1.00;;;19.50;99.90;;;;;;7400733;19;20174;-84
2023/04/23 10:07:48;;;;;;;1.00;0.63;;;19.40;99.90;;;;;;7395138;19;20174;-85
2023/04/23 10:10:15;;;;;;;0.98;0.80;;;19.40;99.90;;;;;;7393624;19;20135;-86
2023/04/23 10:12:42;;;;;;;0.98;0.70;;;19.40;99.90;;;;;;7392648;19;20486;-84
2023/04/23 10:15:09;;;;;;;0.75;0.70;;;19.30;99.90;;;;;;7390715;19;20181;-80
2023/04/23 10:17:36;;;;;;;0.88;0.57;;;19.30;99.90;;;;;;7387505;19;20146;-83
2023/04/23 10:20:05;;;;;;;1.08;0.60;;;19.20;99.90;;;;;;7389901;19;20139;-82
2023/04/23 10:22:33;;;;;;;2.05;0.60;;;19.30;99.90;;;;;;7388868;19;20157;-84
2023/04/23 10:25:05;;;;;;;0.98;0.52;;;19.30;99.90;;;;;;7390856;19;20222;-87
2023/04/23 10:27:32;;;;;;;0.73;0.55;;;19.50;99.90;;;;;;7389575;19;20198;-83
2023/04/23 10:29:59;;;;;;;1.30;0.75;;;19.50;99.90;;;;;;7388199;19;20616;-79
2023/04/23 10:32:26;;;;;;;0.90;0.60;;;19.50;99.90;;;;;;7389799;19;20206;-81
2023/04/23 10:34:53;;;;;;;2.55;0.80;;;19.60;99.90;;;;;;7391983;19;20139;-83
2023/04/23 10:37:20;;;;;;;1.25;0.80;;;19.40;99.90;;;;;;7390719;19;20161;-81
2023/04/23 10:39:54;;;;;;;1.02;0.70;;;19.40;99.90;;;;;;7388840;19;20158;-83
2023/04/23 10:42:22;;;;;;;0.93;0.80;;;19.50;99.90;;;;;;7388823;19;20182;-80
2023/04/23 10:44:48;;;;;;;1.70;0.80;;;19.60;99.90;;;;;;7390714;19;20489;-83
2023/04/23 10:47:16;;;;;;;3.22;0.70;;;19.60;99.90;;;;;;7392014;19;20615;-85
2023/04/23 10:49:43;;;;;;;1.13;0.60;;;19.50;99.90;;;;;;7390636;19;20139;-86
2023/04/23 10:52:14;;;;;;;0.80;0.60;;;19.60;99.90;;;;;;7390557;19;20138;-91
2023/04/23 10:54:47;;;;;;;3.08;1.17;;;19.80;99.90;;;;;;7391067;19;20139;-84
2023/04/23 10:57:13;;;;;;;0.75;0.60;;;19.90;99.90;;;;;;7391620;19;20138;-88
2023/04/23 10:59:50;;;;;;;0.68;0.60;;;19.90;99.90;;;;;;7397396;19;20131;-84
2023/04/23 11:02:16;;;;;;;0.68;0.57;;;20.00;99.90;;;;;;7394384;19;20134;-90
2023/04/23 11:04:57;;;;;;;2.10;0.80;;;19.90;99.90;;;;;;7391916;19;20154;-85
2023/04/23 11:07:31;;;;;;;0.88;0.63;;;19.90;99.90;;;;;;7390766;19;20142;-85
2023/04/23 11:10:11;;;;;;;0.65;0.55;;;20.00;99.90;;;;;;7393338;19;20134;-90
2023/04/23 11:12:38;;;;;;;0.70;0.50;;;20.10;99.90;;;;;;7395681;19;20146;-89
2023/04/23 11:15:12;;;;;;;0.63;0.60;;;20.00;99.90;;;;;;7391518;19;20155;-84
2023/04/23 11:17:38;;;;;;;0.70;0.60;;;19.90;99.90;;;;;;7390799;19;20146;-83
2023/04/23 11:20:09;;;;;;;2.05;0.55;;;19.80;99.90;;;;;;7391551;19;20149;-85
2023/04/23 11:22:46;;;;;;;0.80;0.60;;;20.00;99.90;;;;;;7387928;19;20140;-84
2023/04/23 11:25:13;;;;;;;0.73;0.50;;;20.00;99.90;;;;;;7392155;19;20130;-82
2023/04/23 11:27:41;;;;;;;0.75;0.60;;;20.00;99.90;;;;;;7385276;19;20473;-83
2023/04/23 11:30:15;;;;;;;0.77;0.50;;;20.00;99.90;;;;;;7387442;19;20509;-82
2023/04/23 11:32:44;;;;;;;0.50;0.50;;;19.80;99.90;;;;;;7387495;19;20137;-83
2023/04/23 11:35:13;;;;;;;1.25;0.60;;;19.60;99.90;;;;;;7388234;19;20165;-82
2023/04/23 11:37:40;;;;;;;0.60;0.50;;;19.70;99.90;;;;;;7391635;19;20472;-86
2023/04/23 11:40:09;;;;;;;0.90;0.60;;;19.70;99.90;;;;;;7394023;19;21567;-85
2023/04/23 11:42:48;;;;;;;0.63;0.45;;;19.60;99.90;;;;;;7386784;19;20182;-84
2023/04/23 11:45:32;;;;;;;1.25;0.75;;;19.60;99.90;;;;;;7393240;19;20134;-83
2023/04/23 11:47:59;;;;;;;2.85;0.93;;;19.90;99.90;;;;;;7388538;19;20202;-83
2023/04/23 11:50:31;;;;;;;1.70;1.05;;;20.00;99.90;;;;;;7386921;19;20142;-83
2023/04/23 11:53:09;;;;;;;0.73;0.70;;;20.10;99.90;;;;;;7392247;19;20138;-86
2023/04/23 11:55:34;;;;;;;1.25;0.68;;;20.00;99.90;;;;;;7391901;19;20258;-87
2023/04/23 11:58:01;;;;;;;1.63;0.63;;;20.00;99.90;;;;;;7396054;19;20586;-90
2023/04/23 12:00:27;;;;;;;0.98;0.70;;;20.10;99.90;;;;;;7393842;19;20154;-88
2023/04/23 12:02:58;;;;;;;0.77;0.60;;;20.20;99.90;;;;;;7394193;19;20153;-86
2023/04/23 12:05:32;;;;;;;0.50;0.50;;;20.20;99.90;;;;;;7389576;19;20149;-82
2023/04/23 12:08:13;;;;;;;0.88;0.73;;;19.70;99.90;;;;;;7387380;19;20254;-83
2023/04/23 12:10:48;;;;;;;0.60;0.60;;;19.70;99.90;;;;;;7384697;19;20155;-82
2023/04/23 12:13:14;;;;;;;0.40;0.40;;;19.80;99.90;;;;;;7387596;19;20218;-82
2023/04/23 12:15:51;;;;;;;0.50;0.50;;;19.90;99.90;;;;;;7387575;19;20143;-82
2023/04/23 12:18:17;;;;;;;0.77;0.57;;;19.90;99.90;;;;;;7384879;19;20135;-83
2023/04/23 12:20:44;;;;;;;0.77;0.45;;;19.90;99.90;;;;;;7386178;19;20138;-84
2023/04/23 12:23:09;;;;;;;1.15;0.52;;;19.90;99.90;;;;;;7386893;19;20139;-82
2023/04/23 12:25:36;;;;;;;0.50;0.50;;;19.80;99.90;;;;;;7386411;19;20161;-82
2023/04/23 12:28:06;;;;;;;1.05;0.68;;;19.80;99.90;;;;;;7387598;19;20146;-82
2023/04/23 12:30:33;;;;;;;1.20;0.57;;;19.70;99.90;;;;;;7382487;19;20126;-82
2023/04/23 12:33:00;;;;;;;0.73;0.50;;;19.70;99.90;;;;;;7385236;19;20530;-82
2023/04/23 12:35:50;;;;;;;0.75;0.60;;;19.70;99.90;;;;;;7385838;19;20173;-81
2023/04/23 12:38:26;;;;;;;1.95;1.00;;;20.00;99.90;;;;;;7385644;19;20138;-82
2023/04/23 12:40:55;;;;;;;3.20;0.77;;;20.10;99.90;;;;;;7392349;19;20664;-82
2023/04/23 12:43:22;;;;;;;0.52;0.52;;;20.20;99.90;;;;;;7392913;19;20493;-83
2023/04/23 12:45:48;;;;;;;1.17;0.60;;;20.40;99.90;;;;;;7391096;19;20157;-83
2023/04/23 12:48:14;;;;;;;0.68;0.50;;;20.50;99.90;;;;;;7392887;19;20138;-82